sensor_id;sensor_type;location;lat;lon;timestamp;P1;durP1;ratioP1;P2;durP2;ratioP2
22871;SDS011;11603;44.910;8.630;2023-05-06T00:00:43;3.08;;;2.58;;
22871;SDS011;11603;44.910;8.630;2023-05-06T00:03:09;3.13;;;2.83;;
22871;SDS011;11603;44.910;8.630;2023-05-06T00:05:34;4.07;;;2.80;;
22871;SDS011;11603;44.910;8.630;2023-05-06T00:08:00;19.08;;;4.07;;
22871;SDS011;11603;44.910;8.630;2023-05-06T00:10:26;6.50;;;3.10;;
22871;SDS011;11603;44.910;8.630;2023-05-06T00:12:51;3.35;;;2.95;;
22871;SDS011;11603;44.910;8.630;2023-05-06T00:15:17;4.75;;;3.10;;
22871;SDS011;11603;44.910;8.630;2023-05-06T00:17:42;5.07;;;3.17;;
22871;SDS011;11603;44.910;8.630;2023-05-06T00:20:08;6.55;;;3.58;;
22871;SDS011;11603;44.910;8.630;2023-05-06T00:22:34;3.15;;;2.85;;
22871;SDS011;11603;44.910;8.630;2023-05-06T00:25:00;4.82;;;3.03;;
22871;SDS011;11603;44.910;8.630;2023-05-06T00:27:25;5.50;;;3.03;;
22871;SDS011;11603;44.910;8.630;2023-05-06T00:29:51;4.22;;;3.80;;
22871;SDS011;11603;44.910;8.630;2023-05-06T00:32:16;4.55;;;3.28;;
22871;SDS011;11603;44.910;8.630;2023-05-06T00:34:42;3.67;;;3.30;;
22871;SDS011;11603;44.910;8.630;2023-05-06T00:37:07;4.38;;;3.83;;
22871;SDS011;11603;44.910;8.630;2023-05-06T00:39:33;3.60;;;3.30;;
22871;SDS011;11603;44.910;8.630;2023-05-06T00:41:59;4.03;;;3.60;;
22871;SDS011;11603;44.910;8.630;2023-05-06T00:44:28;4.30;;;3.30;;
22871;SDS011;11603;44.910;8.630;2023-05-06T00:46:54;3.78;;;3.35;;
22871;SDS011;11603;44.910;8.630;2023-05-06T00:49:21;5.28;;;3.35;;
22871;SDS011;11603;44.910;8.630;2023-05-06T00:51:47;3.45;;;3.15;;
22871;SDS011;11603;44.910;8.630;2023-05-06T00:54:13;5.40;;;3.28;;
22871;SDS011;11603;44.910;8.630;2023-05-06T00:56:39;4.07;;;3.40;;
22871;SDS011;11603;44.910;8.630;2023-05-06T00:59:05;6.35;;;3.22;;
22871;SDS011;11603;44.910;8.630;2023-05-06T01:01:31;3.60;;;3.30;;
22871;SDS011;11603;44.910;8.630;2023-05-06T01:03:57;6.07;;;3.40;;
22871;SDS011;11603;44.910;8.630;2023-05-06T01:14:24;3.95;;;3.55;;
22871;SDS011;11603;44.910;8.630;2023-05-06T01:16:53;3.92;;;3.55;;
22871;SDS011;11603;44.910;8.630;2023-05-06T01:19:41;7.55;;;3.40;;
22871;SDS011;11603;44.910;8.630;2023-05-06T01:22:15;4.20;;;3.63;;
22871;SDS011;11603;44.910;8.630;2023-05-06T01:24:41;5.00;;;3.60;;
22871;SDS011;11603;44.910;8.630;2023-05-06T01:27:08;5.20;;;3.58;;
22871;SDS011;11603;44.910;8.630;2023-05-06T01:29:35;3.40;;;3.10;;
22871;SDS011;11603;44.910;8.630;2023-05-06T01:37:59;6.65;;;3.80;;
22871;SDS011;11603;44.910;8.630;2023-05-06T01:40:35;4.05;;;3.65;;
22871;SDS011;11603;44.910;8.630;2023-05-06T01:43:01;3.85;;;3.50;;
22871;SDS011;11603;44.910;8.630;2023-05-06T01:45:30;3.67;;;3.38;;
22871;SDS011;11603;44.910;8.630;2023-05-06T01:47:59;3.92;;;3.60;;
22871;SDS011;11603;44.910;8.630;2023-05-06T01:50:26;5.07;;;3.58;;
22871;SDS011;11603;44.910;8.630;2023-05-06T01:52:57;4.13;;;3.30;;
22871;SDS011;11603;44.910;8.630;2023-05-06T01:55:23;5.97;;;3.55;;
22871;SDS011;11603;44.910;8.630;2023-05-06T01:57:49;4.88;;;4.38;;
22871;SDS011;11603;44.910;8.630;2023-05-06T02:00:14;3.70;;;3.40;;
22871;SDS011;11603;44.910;8.630;2023-05-06T02:02:41;4.55;;;3.70;;
22871;SDS011;11603;44.910;8.630;2023-05-06T02:05:07;5.53;;;4.00;;
22871;SDS011;11603;44.910;8.630;2023-05-06T02:07:36;3.97;;;3.55;;
22871;SDS011;11603;44.910;8.630;2023-05-06T02:10:02;4.38;;;3.70;;
22871;SDS011;11603;44.910;8.630;2023-05-06T02:12:30;5.47;;;3.70;;
22871;SDS011;11603;44.910;8.630;2023-05-06T02:14:56;4.43;;;4.03;;
22871;SDS011;11603;44.910;8.630;2023-05-06T02:17:21;5.75;;;3.50;;
22871;SDS011;11603;44.910;8.630;2023-05-06T02:19:47;6.75;;;3.88;;
22871;SDS011;11603;44.910;8.630;2023-05-06T02:22:12;5.55;;;4.22;;
22871;SDS011;11603;44.910;8.630;2023-05-06T02:24:38;4.25;;;3.83;;
22871;SDS011;11603;44.910;8.630;2023-05-06T02:27:03;4.10;;;3.70;;
22871;SDS011;11603;44.910;8.630;2023-05-06T02:29:29;4.30;;;3.90;;
22871;SDS011;11603;44.910;8.630;2023-05-06T02:31:54;4.03;;;3.67;;
22871;SDS011;11603;44.910;8.630;2023-05-06T02:34:20;4.55;;;4.15;;
22871;SDS011;11603;44.910;8.630;2023-05-06T02:36:45;4.63;;;4.10;;
22871;SDS011;11603;44.910;8.630;2023-05-06T02:39:11;5.20;;;4.18;;
22871;SDS011;11603;44.910;8.630;2023-05-06T02:41:36;4.47;;;4.07;;
22871;SDS011;11603;44.910;8.630;2023-05-06T02:44:02;6.18;;;4.38;;
22871;SDS011;11603;44.910;8.630;2023-05-06T02:46:29;6.13;;;4.30;;
22871;SDS011;11603;44.910;8.630;2023-05-06T02:48:55;4.85;;;3.90;;
22871;SDS011;11603;44.910;8.630;2023-05-06T02:51:22;5.00;;;4.50;;
22871;SDS011;11603;44.910;8.630;2023-05-06T02:53:47;4.40;;;4.00;;
22871;SDS011;11603;44.910;8.630;2023-05-06T02:56:12;4.85;;;4.40;;
22871;SDS011;11603;44.910;8.630;2023-05-06T02:58:38;5.97;;;4.47;;
22871;SDS011;11603;44.910;8.630;2023-05-06T03:01:03;6.75;;;4.60;;
22871;SDS011;11603;44.910;8.630;2023-05-06T03:03:29;6.50;;;5.00;;
22871;SDS011;11603;44.910;8.630;2023-05-06T03:05:55;6.30;;;4.60;;
22871;SDS011;11603;44.910;8.630;2023-05-06T03:08:20;4.95;;;4.43;;
22871;SDS011;11603;44.910;8.630;2023-05-06T03:10:46;5.00;;;4.50;;
22871;SDS011;11603;44.910;8.630;2023-05-06T03:13:13;5.75;;;4.70;;
22871;SDS011;11603;44.910;8.630;2023-05-06T03:15:39;6.03;;;5.00;;
22871;SDS011;11603;44.910;8.630;2023-05-06T03:18:05;5.32;;;4.82;;
22871;SDS011;11603;44.910;8.630;2023-05-06T03:20:31;5.80;;;5.28;;
22871;SDS011;11603;44.910;8.630;2023-05-06T03:22:58;5.13;;;4.63;;
22871;SDS011;11603;44.910;8.630;2023-05-06T03:25:24;5.45;;;4.93;;
22871;SDS011;11603;44.910;8.630;2023-05-06T03:27:51;5.97;;;5.28;;
22871;SDS011;11603;44.910;8.630;2023-05-06T03:30:19;5.28;;;4.78;;
22871;SDS011;11603;44.910;8.630;2023-05-06T03:32:47;6.85;;;5.70;;
22871;SDS011;11603;44.910;8.630;2023-05-06T03:35:17;6.43;;;5.18;;
22871;SDS011;11603;44.910;8.630;2023-05-06T03:37:47;6.50;;;5.90;;
22871;SDS011;11603;44.910;8.630;2023-05-06T03:40:13;6.35;;;5.75;;
22871;SDS011;11603;44.910;8.630;2023-05-06T03:42:39;6.20;;;5.60;;
22871;SDS011;11603;44.910;8.630;2023-05-06T03:45:05;6.43;;;5.82;;
22871;SDS011;11603;44.910;8.630;2023-05-06T03:47:32;6.45;;;5.25;;
22871;SDS011;11603;44.910;8.630;2023-05-06T03:49:58;6.20;;;5.60;;
22871;SDS011;11603;44.910;8.630;2023-05-06T03:52:24;6.38;;;5.68;;
22871;SDS011;11603;44.910;8.630;2023-05-06T03:54:50;6.45;;;5.85;;
22871;SDS011;11603;44.910;8.630;2023-05-06T03:57:16;7.93;;;5.78;;
22871;SDS011;11603;44.910;8.630;2023-05-06T03:59:42;6.22;;;5.63;;
22871;SDS011;11603;44.910;8.630;2023-05-06T04:02:07;7.45;;;5.80;;
22871;SDS011;11603;44.910;8.630;2023-05-06T04:04:35;7.60;;;5.90;;
22871;SDS011;11603;44.910;8.630;2023-05-06T04:07:00;7.50;;;5.40;;
22871;SDS011;11603;44.910;8.630;2023-05-06T04:09:27;7.05;;;6.20;;
22871;SDS011;11603;44.910;8.630;2023-05-06T04:11:54;6.60;;;5.90;;
22871;SDS011;11603;44.910;8.630;2023-05-06T04:14:20;8.40;;;5.68;;
22871;SDS011;11603;44.910;8.630;2023-05-06T04:16:46;7.00;;;5.93;;
22871;SDS011;11603;44.910;8.630;2023-05-06T04:19:12;7.75;;;5.90;;
22871;SDS011;11603;44.910;8.630;2023-05-06T04:21:38;6.63;;;5.70;;
22871;SDS011;11603;44.910;8.630;2023-05-06T04:24:08;7.00;;;6.30;;
22871;SDS011;11603;44.910;8.630;2023-05-06T04:26:37;7.88;;;5.72;;
22871;SDS011;11603;44.910;8.630;2023-05-06T04:29:03;7.28;;;5.93;;
22871;SDS011;11603;44.910;8.630;2023-05-06T04:31:30;8.63;;;5.53;;
22871;SDS011;11603;44.910;8.630;2023-05-06T04:34:01;6.45;;;5.85;;
22871;SDS011;11603;44.910;8.630;2023-05-06T04:36:28;7.00;;;6.30;;
22871;SDS011;11603;44.910;8.630;2023-05-06T04:39:15;8.20;;;6.35;;
22871;SDS011;11603;44.910;8.630;2023-05-06T04:41:42;8.48;;;6.60;;
22871;SDS011;11603;44.910;8.630;2023-05-06T04:44:11;7.75;;;6.57;;
22871;SDS011;11603;44.910;8.630;2023-05-06T04:46:37;6.50;;;5.90;;
22871;SDS011;11603;44.910;8.630;2023-05-06T04:49:03;12.05;;;6.10;;
22871;SDS011;11603;44.910;8.630;2023-05-06T04:51:29;7.53;;;5.00;;
22871;SDS011;11603;44.910;8.630;2023-05-06T04:53:56;5.68;;;5.07;;
22871;SDS011;11603;44.910;8.630;2023-05-06T04:56:21;6.03;;;5.00;;
22871;SDS011;11603;44.910;8.630;2023-05-06T04:58:48;8.60;;;4.95;;
22871;SDS011;11603;44.910;8.630;2023-05-06T05:01:14;7.40;;;5.10;;
22871;SDS011;11603;44.910;8.630;2023-05-06T05:03:39;6.45;;;4.82;;
22871;SDS011;11603;44.910;8.630;2023-05-06T05:06:07;9.30;;;5.20;;
22871;SDS011;11603;44.910;8.630;2023-05-06T05:08:32;6.15;;;5.28;;
22871;SDS011;11603;44.910;8.630;2023-05-06T05:10:58;7.53;;;5.30;;
22871;SDS011;11603;44.910;8.630;2023-05-06T05:13:25;5.90;;;5.30;;
22871;SDS011;11603;44.910;8.630;2023-05-06T05:15:53;6.78;;;5.00;;
22871;SDS011;11603;44.910;8.630;2023-05-06T05:18:21;7.32;;;5.72;;
22871;SDS011;11603;44.910;8.630;2023-05-06T05:20:49;5.63;;;5.03;;
22871;SDS011;11603;44.910;8.630;2023-05-06T05:23:15;6.10;;;5.50;;
22871;SDS011;11603;44.910;8.630;2023-05-06T05:25:42;7.47;;;4.53;;
22871;SDS011;11603;44.910;8.630;2023-05-06T05:28:08;5.85;;;5.25;;
22871;SDS011;11603;44.910;8.630;2023-05-06T05:30:35;6.55;;;5.00;;
22871;SDS011;11603;44.910;8.630;2023-05-06T05:33:01;5.90;;;5.20;;
22871;SDS011;11603;44.910;8.630;2023-05-06T05:35:26;5.20;;;4.70;;
22871;SDS011;11603;44.910;8.630;2023-05-06T05:37:52;5.90;;;5.28;;
22871;SDS011;11603;44.910;8.630;2023-05-06T05:40:18;6.28;;;5.68;;
22871;SDS011;11603;44.910;8.630;2023-05-06T05:42:46;8.05;;;5.80;;
22871;SDS011;11603;44.910;8.630;2023-05-06T05:45:20;7.05;;;5.55;;
22871;SDS011;11603;44.910;8.630;2023-05-06T05:47:46;7.22;;;5.55;;
22871;SDS011;11603;44.910;8.630;2023-05-06T05:50:14;7.63;;;5.40;;
22871;SDS011;11603;44.910;8.630;2023-05-06T05:52:39;6.03;;;5.05;;
22871;SDS011;11603;44.910;8.630;2023-05-06T05:55:05;8.52;;;5.30;;
22871;SDS011;11603;44.910;8.630;2023-05-06T05:57:32;9.15;;;5.78;;
22871;SDS011;11603;44.910;8.630;2023-05-06T05:59:57;5.80;;;5.22;;
22871;SDS011;11603;44.910;8.630;2023-05-06T06:02:23;7.28;;;5.30;;
22871;SDS011;11603;44.910;8.630;2023-05-06T06:04:49;5.88;;;5.05;;
22871;SDS011;11603;44.910;8.630;2023-05-06T06:07:15;10.55;;;5.30;;
22871;SDS011;11603;44.910;8.630;2023-05-06T06:09:42;6.65;;;5.35;;
22871;SDS011;11603;44.910;8.630;2023-05-06T06:12:12;7.85;;;5.72;;
22871;SDS011;11603;44.910;8.630;2023-05-06T06:14:39;8.38;;;5.53;;
22871;SDS011;11603;44.910;8.630;2023-05-06T06:17:04;7.30;;;6.25;;
22871;SDS011;11603;44.910;8.630;2023-05-06T06:19:30;7.15;;;5.70;;
22871;SDS011;11603;44.910;8.630;2023-05-06T06:21:56;11.80;;;6.00;;
22871;SDS011;11603;44.910;8.630;2023-05-06T06:24:21;6.32;;;5.72;;
22871;SDS011;11603;44.910;8.630;2023-05-06T06:26:48;9.77;;;5.82;;
22871;SDS011;11603;44.910;8.630;2023-05-06T06:29:14;8.23;;;6.15;;
22871;SDS011;11603;44.910;8.630;2023-05-06T06:31:39;7.90;;;5.50;;
22871;SDS011;11603;44.910;8.630;2023-05-06T06:34:04;11.15;;;5.80;;
22871;SDS011;11603;44.910;8.630;2023-05-06T06:36:31;7.22;;;5.40;;
22871;SDS011;11603;44.910;8.630;2023-05-06T06:38:57;15.30;;;6.85;;
22871;SDS011;11603;44.910;8.630;2023-05-06T06:41:22;8.68;;;6.10;;
22871;SDS011;11603;44.910;8.630;2023-05-06T06:43:48;7.72;;;5.93;;
22871;SDS011;11603;44.910;8.630;2023-05-06T06:46:17;8.15;;;5.97;;
22871;SDS011;11603;44.910;8.630;2023-05-06T06:48:43;6.55;;;5.90;;
22871;SDS011;11603;44.910;8.630;2023-05-06T06:51:08;8.90;;;6.10;;
22871;SDS011;11603;44.910;8.630;2023-05-06T06:53:34;8.57;;;5.90;;
22871;SDS011;11603;44.910;8.630;2023-05-06T06:55:59;11.65;;;6.35;;
22871;SDS011;11603;44.910;8.630;2023-05-06T06:58:25;8.18;;;5.97;;
22871;SDS011;11603;44.910;8.630;2023-05-06T07:00:50;9.80;;;5.95;;
22871;SDS011;11603;44.910;8.630;2023-05-06T07:03:16;7.30;;;6.07;;
22871;SDS011;11603;44.910;8.630;2023-05-06T07:05:43;7.30;;;6.15;;
22871;SDS011;11603;44.910;8.630;2023-05-06T07:08:09;9.52;;;6.32;;
22871;SDS011;11603;44.910;8.630;2023-05-06T07:10:35;8.55;;;6.53;;
22871;SDS011;11603;44.910;8.630;2023-05-06T07:13:01;8.30;;;6.28;;
22871;SDS011;11603;44.910;8.630;2023-05-06T07:15:26;9.15;;;6.50;;
22871;SDS011;11603;44.910;8.630;2023-05-06T07:17:52;10.38;;;6.30;;
22871;SDS011;11603;44.910;8.630;2023-05-06T07:20:18;6.82;;;6.10;;
22871;SDS011;11603;44.910;8.630;2023-05-06T07:22:43;11.13;;;5.57;;
22871;SDS011;11603;44.910;8.630;2023-05-06T07:25:09;9.65;;;5.70;;
22871;SDS011;11603;44.910;8.630;2023-05-06T07:27:35;9.38;;;5.88;;
22871;SDS011;11603;44.910;8.630;2023-05-06T07:30:01;8.65;;;5.53;;
22871;SDS011;11603;44.910;8.630;2023-05-06T07:32:26;8.60;;;5.82;;
22871;SDS011;11603;44.910;8.630;2023-05-06T07:34:52;9.32;;;5.50;;
22871;SDS011;11603;44.910;8.630;2023-05-06T07:37:17;8.43;;;5.82;;
22871;SDS011;11603;44.910;8.630;2023-05-06T07:39:43;6.03;;;5.28;;
22871;SDS011;11603;44.910;8.630;2023-05-06T07:42:08;8.65;;;5.60;;
22871;SDS011;11603;44.910;8.630;2023-05-06T07:44:37;6.38;;;5.07;;
22871;SDS011;11603;44.910;8.630;2023-05-06T07:47:03;5.13;;;4.60;;
22871;SDS011;11603;44.910;8.630;2023-05-06T07:49:29;7.35;;;4.72;;
22871;SDS011;11603;44.910;8.630;2023-05-06T07:51:57;6.30;;;4.60;;
22871;SDS011;11603;44.910;8.630;2023-05-06T07:54:23;5.22;;;4.28;;
22871;SDS011;11603;44.910;8.630;2023-05-06T07:56:48;3.78;;;3.35;;
22871;SDS011;11603;44.910;8.630;2023-05-06T07:59:14;5.95;;;2.85;;
22871;SDS011;11603;44.910;8.630;2023-05-06T08:01:39;7.20;;;3.17;;
22871;SDS011;11603;44.910;8.630;2023-05-06T08:04:06;8.13;;;3.40;;
22871;SDS011;11603;44.910;8.630;2023-05-06T08:06:32;3.53;;;2.80;;
22871;SDS011;11603;44.910;8.630;2023-05-06T08:08:57;4.53;;;2.70;;
22871;SDS011;11603;44.910;8.630;2023-05-06T08:11:23;5.70;;;3.25;;
22871;SDS011;11603;44.910;8.630;2023-05-06T08:13:49;3.60;;;3.22;;
22871;SDS011;11603;44.910;8.630;2023-05-06T08:16:14;4.65;;;3.05;;
22871;SDS011;11603;44.910;8.630;2023-05-06T08:18:40;3.97;;;3.53;;
22871;SDS011;11603;44.910;8.630;2023-05-06T08:21:05;7.10;;;3.72;;
22871;SDS011;11603;44.910;8.630;2023-05-06T08:23:31;7.15;;;3.35;;
22871;SDS011;11603;44.910;8.630;2023-05-06T08:25:56;8.48;;;4.10;;
22871;SDS011;11603;44.910;8.630;2023-05-06T08:28:23;4.55;;;4.15;;
22871;SDS011;11603;44.910;8.630;2023-05-06T08:30:49;6.75;;;3.90;;
22871;SDS011;11603;44.910;8.630;2023-05-06T08:33:16;5.78;;;3.80;;
22871;SDS011;11603;44.910;8.630;2023-05-06T08:35:43;5.13;;;4.53;;
22871;SDS011;11603;44.910;8.630;2023-05-06T08:38:09;5.00;;;4.10;;
22871;SDS011;11603;44.910;8.630;2023-05-06T08:40:34;6.93;;;4.43;;
22871;SDS011;11603;44.910;8.630;2023-05-06T08:43:06;4.97;;;4.47;;
22871;SDS011;11603;44.910;8.630;2023-05-06T08:45:37;12.48;;;3.85;;
22871;SDS011;11603;44.910;8.630;2023-05-06T08:48:03;5.53;;;3.28;;
22871;SDS011;11603;44.910;8.630;2023-05-06T08:50:28;4.45;;;3.10;;
22871;SDS011;11603;44.910;8.630;2023-05-06T08:52:54;3.75;;;3.42;;
22871;SDS011;11603;44.910;8.630;2023-05-06T08:55:20;5.32;;;3.05;;
22871;SDS011;11603;44.910;8.630;2023-05-06T08:57:48;3.85;;;3.13;;
22871;SDS011;11603;44.910;8.630;2023-05-06T09:00:17;12.13;;;2.53;;
22871;SDS011;11603;44.910;8.630;2023-05-06T09:02:42;4.30;;;2.42;;
22871;SDS011;11603;44.910;8.630;2023-05-06T09:05:08;4.63;;;2.35;;
22871;SDS011;11603;44.910;8.630;2023-05-06T09:07:34;2.75;;;2.00;;
22871;SDS011;11603;44.910;8.630;2023-05-06T09:10:03;3.95;;;1.80;;
22871;SDS011;11603;44.910;8.630;2023-05-06T09:12:30;2.17;;;1.80;;
22871;SDS011;11603;44.910;8.630;2023-05-06T09:14:55;2.42;;;1.80;;
22871;SDS011;11603;44.910;8.630;2023-05-06T09:17:21;1.83;;;1.73;;
22871;SDS011;11603;44.910;8.630;2023-05-06T09:19:52;4.50;;;2.10;;
22871;SDS011;11603;44.910;8.630;2023-05-06T09:22:20;6.80;;;1.77;;
22871;SDS011;11603;44.910;8.630;2023-05-06T09:24:48;3.60;;;1.73;;
22871;SDS011;11603;44.910;8.630;2023-05-06T09:32:26;3.38;;;1.70;;
22871;SDS011;11603;44.910;8.630;2023-05-06T09:34:52;4.20;;;1.98;;
22871;SDS011;11603;44.910;8.630;2023-05-06T09:37:18;3.13;;;1.60;;
22871;SDS011;11603;44.910;8.630;2023-05-06T09:39:45;2.03;;;1.83;;
22871;SDS011;11603;44.910;8.630;2023-05-06T09:42:10;4.05;;;1.85;;
22871;SDS011;11603;44.910;8.630;2023-05-06T09:44:36;2.20;;;1.98;;
22871;SDS011;11603;44.910;8.630;2023-05-06T09:47:02;4.60;;;1.70;;
22871;SDS011;11603;44.910;8.630;2023-05-06T09:49:29;3.75;;;1.65;;
22871;SDS011;11603;44.910;8.630;2023-05-06T09:51:55;3.25;;;1.90;;
22871;SDS011;11603;44.910;8.630;2023-05-06T09:54:22;4.22;;;1.90;;
22871;SDS011;11603;44.910;8.630;2023-05-06T09:56:49;2.45;;;1.63;;
22871;SDS011;11603;44.910;8.630;2023-05-06T09:59:16;1.70;;;1.60;;
22871;SDS011;11603;44.910;8.630;2023-05-06T10:01:43;5.47;;;2.10;;
22871;SDS011;11603;44.910;8.630;2023-05-06T10:04:08;2.65;;;1.83;;
22871;SDS011;11603;44.910;8.630;2023-05-06T10:06:40;3.67;;;1.63;;
22871;SDS011;11603;44.910;8.630;2023-05-06T10:09:06;2.20;;;1.67;;
22871;SDS011;11603;44.910;8.630;2023-05-06T10:11:32;3.80;;;1.60;;
22871;SDS011;11603;44.910;8.630;2023-05-06T10:13:58;2.47;;;1.60;;
22871;SDS011;11603;44.910;8.630;2023-05-06T10:16:25;3.38;;;1.42;;
22871;SDS011;11603;44.910;8.630;2023-05-06T10:18:52;4.38;;;1.67;;
22871;SDS011;11603;44.910;8.630;2023-05-06T10:21:23;3.10;;;1.60;;
22871;SDS011;11603;44.910;8.630;2023-05-06T10:24:07;2.17;;;1.55;;
22871;SDS011;11603;44.910;8.630;2023-05-06T10:26:36;4.22;;;1.77;;
22871;SDS011;11603;44.910;8.630;2023-05-06T10:29:03;2.85;;;2.47;;
22871;SDS011;11603;44.910;8.630;2023-05-06T10:31:36;2.08;;;1.40;;
22871;SDS011;11603;44.910;8.630;2023-05-06T10:34:04;2.42;;;1.70;;
22871;SDS011;11603;44.910;8.630;2023-05-06T10:36:32;1.60;;;1.50;;
22871;SDS011;11603;44.910;8.630;2023-05-06T10:39:00;2.78;;;1.75;;
22871;SDS011;11603;44.910;8.630;2023-05-06T10:41:27;4.75;;;1.83;;
22871;SDS011;11603;44.910;8.630;2023-05-06T10:43:54;4.22;;;2.00;;
22871;SDS011;11603;44.910;8.630;2023-05-06T10:46:26;2.67;;;1.65;;
22871;SDS011;11603;44.910;8.630;2023-05-06T10:51:33;5.43;;;1.50;;
22871;SDS011;11603;44.910;8.630;2023-05-06T10:54:01;3.40;;;1.55;;
22871;SDS011;11603;44.910;8.630;2023-05-06T10:56:35;3.20;;;2.03;;
22871;SDS011;11603;44.910;8.630;2023-05-06T11:01:34;4.72;;;1.67;;
22871;SDS011;11603;44.910;8.630;2023-05-06T11:04:07;5.55;;;2.17;;
22871;SDS011;11603;44.910;8.630;2023-05-06T11:06:45;2.47;;;1.67;;
22871;SDS011;11603;44.910;8.630;2023-05-06T11:09:16;3.30;;;1.95;;
22871;SDS011;11603;44.910;8.630;2023-05-06T11:14:28;2.35;;;1.52;;
22871;SDS011;11603;44.910;8.630;2023-05-06T11:16:55;3.92;;;1.75;;
22871;SDS011;11603;44.910;8.630;2023-05-06T11:21:52;5.05;;;2.38;;
22871;SDS011;11603;44.910;8.630;2023-05-06T11:24:22;3.25;;;2.00;;
22871;SDS011;11603;44.910;8.630;2023-05-06T11:26:49;5.68;;;1.80;;
22871;SDS011;11603;44.910;8.630;2023-05-06T11:29:15;6.38;;;2.88;;
22871;SDS011;11603;44.910;8.630;2023-05-06T11:31:42;2.97;;;2.05;;
22871;SDS011;11603;44.910;8.630;2023-05-06T11:34:10;2.78;;;2.28;;
22871;SDS011;11603;44.910;8.630;2023-05-06T11:36:54;4.10;;;2.33;;
22871;SDS011;11603;44.910;8.630;2023-05-06T11:39:31;3.10;;;2.05;;
22871;SDS011;11603;44.910;8.630;2023-05-06T11:41:58;5.72;;;1.95;;
22871;SDS011;11603;44.910;8.630;2023-05-06T11:44:31;5.65;;;1.70;;
22871;SDS011;11603;44.910;8.630;2023-05-06T11:46:59;4.80;;;1.85;;
22871;SDS011;11603;44.910;8.630;2023-05-06T11:49:26;4.35;;;2.00;;
22871;SDS011;11603;44.910;8.630;2023-05-06T11:51:55;2.20;;;2.00;;
22871;SDS011;11603;44.910;8.630;2023-05-06T11:54:24;3.40;;;2.10;;
22871;SDS011;11603;44.910;8.630;2023-05-06T11:56:51;2.35;;;1.92;;
22871;SDS011;11603;44.910;8.630;2023-05-06T11:59:26;5.10;;;2.30;;
22871;SDS011;11603;44.910;8.630;2023-05-06T12:01:52;2.20;;;2.00;;
22871;SDS011;11603;44.910;8.630;2023-05-06T12:04:17;3.47;;;2.00;;
22871;SDS011;11603;44.910;8.630;2023-05-06T12:06:43;4.43;;;2.47;;
22871;SDS011;11603;44.910;8.630;2023-05-06T12:09:10;2.67;;;2.20;;
22871;SDS011;11603;44.910;8.630;2023-05-06T12:11:36;2.50;;;2.10;;
22871;SDS011;11603;44.910;8.630;2023-05-06T12:14:04;2.47;;;2.28;;
22871;SDS011;11603;44.910;8.630;2023-05-06T12:16:31;4.15;;;2.85;;
22871;SDS011;11603;44.910;8.630;2023-05-06T12:18:57;4.60;;;2.30;;
22871;SDS011;11603;44.910;8.630;2023-05-06T12:21:23;4.53;;;2.35;;
22871;SDS011;11603;44.910;8.630;2023-05-06T12:23:52;3.63;;;2.00;;
22871;SDS011;11603;44.910;8.630;2023-05-06T12:26:19;5.72;;;2.33;;
22871;SDS011;11603;44.910;8.630;2023-05-06T12:28:46;8.18;;;2.20;;
22871;SDS011;11603;44.910;8.630;2023-05-06T12:31:27;2.35;;;2.15;;
22871;SDS011;11603;44.910;8.630;2023-05-06T12:33:52;2.30;;;2.10;;
22871;SDS011;11603;44.910;8.630;2023-05-06T12:36:18;4.25;;;2.28;;
22871;SDS011;11603;44.910;8.630;2023-05-06T12:38:50;2.60;;;2.30;;
22871;SDS011;11603;44.910;8.630;2023-05-06T12:41:24;3.45;;;1.98;;
22871;SDS011;11603;44.910;8.630;2023-05-06T12:44:00;2.10;;;1.90;;
22871;SDS011;11603;44.910;8.630;2023-05-06T12:46:25;3.47;;;2.08;;
22871;SDS011;11603;44.910;8.630;2023-05-06T12:49:01;2.67;;;2.05;;
22871;SDS011;11603;44.910;8.630;2023-05-06T12:51:27;3.22;;;1.92;;
22871;SDS011;11603;44.910;8.630;2023-05-06T12:53:55;5.57;;;1.83;;
22871;SDS011;11603;44.910;8.630;2023-05-06T12:56:20;4.25;;;2.05;;
22871;SDS011;11603;44.910;8.630;2023-05-06T12:58:59;2.95;;;2.33;;
22871;SDS011;11603;44.910;8.630;2023-05-06T13:01:25;3.75;;;1.92;;
22871;SDS011;11603;44.910;8.630;2023-05-06T13:03:51;2.80;;;2.13;;
22871;SDS011;11603;44.910;8.630;2023-05-06T13:06:19;2.25;;;1.80;;
22871;SDS011;11603;44.910;8.630;2023-05-06T13:08:44;3.28;;;1.92;;
22871;SDS011;11603;44.910;8.630;2023-05-06T13:11:10;4.40;;;2.03;;
22871;SDS011;11603;44.910;8.630;2023-05-06T13:13:35;2.85;;;1.88;;
22871;SDS011;11603;44.910;8.630;2023-05-06T13:16:01;5.53;;;1.98;;
22871;SDS011;11603;44.910;8.630;2023-05-06T13:18:26;1.90;;;1.70;;
22871;SDS011;11603;44.910;8.630;2023-05-06T13:20:53;1.95;;;1.70;;
22871;SDS011;11603;44.910;8.630;2023-05-06T13:23:18;2.03;;;1.75;;
22871;SDS011;11603;44.910;8.630;2023-05-06T13:25:44;8.57;;;2.10;;
22871;SDS011;11603;44.910;8.630;2023-05-06T13:28:09;2.05;;;1.80;;
22871;SDS011;11603;44.910;8.630;2023-05-06T13:30:35;5.60;;;2.10;;
22871;SDS011;11603;44.910;8.630;2023-05-06T13:33:00;2.80;;;1.80;;
22871;SDS011;11603;44.910;8.630;2023-05-06T13:35:25;4.10;;;1.95;;
22871;SDS011;11603;44.910;8.630;2023-05-06T13:37:51;2.10;;;1.90;;
22871;SDS011;11603;44.910;8.630;2023-05-06T13:40:16;2.15;;;1.75;;
22871;SDS011;11603;44.910;8.630;2023-05-06T13:42:42;2.20;;;1.98;;
22871;SDS011;11603;44.910;8.630;2023-05-06T13:45:07;3.15;;;2.15;;
22871;SDS011;11603;44.910;8.630;2023-05-06T13:47:33;3.35;;;2.00;;
22871;SDS011;11603;44.910;8.630;2023-05-06T13:49:59;2.85;;;2.00;;
22871;SDS011;11603;44.910;8.630;2023-05-06T13:52:24;8.38;;;2.10;;
22871;SDS011;11603;44.910;8.630;2023-05-06T13:54:50;4.55;;;1.90;;
22871;SDS011;11603;44.910;8.630;2023-05-06T13:57:15;2.38;;;1.88;;
22871;SDS011;11603;44.910;8.630;2023-05-06T13:59:41;3.13;;;2.05;;
22871;SDS011;11603;44.910;8.630;2023-05-06T14:02:07;7.07;;;2.30;;
22871;SDS011;11603;44.910;8.630;2023-05-06T14:04:32;40.13;;;4.15;;
22871;SDS011;11603;44.910;8.630;2023-05-06T14:06:57;3.72;;;2.10;;
22871;SDS011;11603;44.910;8.630;2023-05-06T14:09:23;4.78;;;2.25;;
22871;SDS011;11603;44.910;8.630;2023-05-06T14:11:48;3.50;;;1.98;;
22871;SDS011;11603;44.910;8.630;2023-05-06T14:14:14;2.60;;;2.10;;
22871;SDS011;11603;44.910;8.630;2023-05-06T14:16:39;2.72;;;1.80;;
22871;SDS011;11603;44.910;8.630;2023-05-06T14:19:05;4.35;;;2.30;;
22871;SDS011;11603;44.910;8.630;2023-05-06T14:21:30;2.22;;;1.80;;
22871;SDS011;11603;44.910;8.630;2023-05-06T14:23:56;13.43;;;2.30;;
22871;SDS011;11603;44.910;8.630;2023-05-06T14:26:21;3.83;;;1.90;;
22871;SDS011;11603;44.910;8.630;2023-05-06T14:28:47;3.13;;;1.90;;
22871;SDS011;11603;44.910;8.630;2023-05-06T14:31:12;2.00;;;1.90;;
22871;SDS011;11603;44.910;8.630;2023-05-06T14:33:38;2.28;;;1.90;;
22871;SDS011;11603;44.910;8.630;2023-05-06T14:36:03;5.00;;;2.22;;
22871;SDS011;11603;44.910;8.630;2023-05-06T14:38:29;3.63;;;1.60;;
22871;SDS011;11603;44.910;8.630;2023-05-06T14:40:55;2.10;;;1.83;;
22871;SDS011;11603;44.910;8.630;2023-05-06T14:43:20;1.67;;;1.50;;
22871;SDS011;11603;44.910;8.630;2023-05-06T14:45:46;5.50;;;2.13;;
22871;SDS011;11603;44.910;8.630;2023-05-06T14:48:11;2.42;;;2.10;;
22871;SDS011;11603;44.910;8.630;2023-05-06T14:50:37;2.25;;;1.70;;
22871;SDS011;11603;44.910;8.630;2023-05-06T14:53:02;2.08;;;1.77;;
22871;SDS011;11603;44.910;8.630;2023-05-06T14:55:28;3.45;;;1.50;;
22871;SDS011;11603;44.910;8.630;2023-05-06T14:57:53;6.78;;;1.90;;
22871;SDS011;11603;44.910;8.630;2023-05-06T15:00:19;5.28;;;1.88;;
22871;SDS011;11603;44.910;8.630;2023-05-06T15:02:44;3.22;;;1.50;;
22871;SDS011;11603;44.910;8.630;2023-05-06T15:05:10;5.45;;;2.60;;
22871;SDS011;11603;44.910;8.630;2023-05-06T15:07:36;3.50;;;1.75;;
22871;SDS011;11603;44.910;8.630;2023-05-06T15:10:01;3.83;;;1.50;;
22871;SDS011;11603;44.910;8.630;2023-05-06T15:12:28;5.28;;;1.50;;
22871;SDS011;11603;44.910;8.630;2023-05-06T15:14:53;6.72;;;1.60;;